This demonstration page uses our WeatherBlox Daily Observations layout. Learn more.

36.19886, -115.1175

Hourly Observations for June 7, 2018

Temp ( °F °C ) Dew Point ( °F °C ) Humidity (%) Winds ( mph kmh ) Pressure ( in mb ) Visibility ( mi km ) Precip ( " mm )
12:53 am 00:53 Clear 81 27.2 20 -6.7 10 10 SSE 3 6 29.68 1005 10 16.09344 0 0
1:53 am 01:53 Clear 80 26.7 21 -6.1 11 11 SSE 12 19 29.68 1005 10 16.09344 0 0
2:53 am 02:53 Clear 80 26.7 24 -4.4 13 13 SSW 10 17 29.68 1005 10 16.09344 0 0
3:53 am 03:53 Clear 78 25.6 25 -3.9 14 14 Calm 29.71 1006 10 16.09344 0 0
4:53 am 04:53 Clear 77 25 27 -2.8 16 16 Calm 29.71 1006 10 16.09344 0 0
5:53 am 05:53 Sunny 74 23.3 29 -1.7 19 19 SE 6 9 29.74 1007 10 16.09344 0 0
6:53 am 06:53 Sunny 76 24.4 30 -1.1 18 18 ESE 3 6 29.77 1008 10 16.09344 0 0
7:53 am 07:53 Sunny 81 27.2 27 -2.8 14 14 SSW 9 15 29.8 1009 10 16.09344 0 0
8:53 am 08:53 Sunny 84 28.9 24 -4.4 11 11 S 7 11 29.8 1009 10 16.09344 0 0
9:53 am 09:53 Sunny 89 31.7 21 -6.1 8 8 SSW 22 35 29.8 1009 10 16.09344 0 0
10:53 am 10:53 Sunny 90 32.2 19 -7.2 7 7 S 15 24 29.8 1009 10 16.09344 0 0
11:53 am 11:53 Sunny 93 33.9 15 -9.4 6 6 SW 17 28 29.8 1009 10 16.09344 0 0
12:53 pm 12:53 Sunny 94 34.4 14 -10 5 5 SSW 16 26 29.77 1008 10 16.09344 0 0
1:53 pm 13:53 Sunny 96 35.6 11 -11.7 4 4 SW 20 31 29.77 1008 10 16.09344 0 0
2:53 pm 14:53 Sunny 96 35.6 12 -11.1 4 4 SW 17 28 29.74 1007 10 16.09344 0 0
3:53 pm 15:53 Sunny 97 36.1 10 -12.2 4 4 SW 15 24 29.74 1007 10 16.09344 0 0
4:53 pm 16:53 Sunny 97 36.1 11 -11.7 4 4 SW 14 22 29.74 1007 10 16.09344 0 0
5:53 pm 17:53 Sunny 96 35.6 11 -11.7 4 4 SW 13 20 29.74 1007 10 16.09344 0 0
6:53 pm 18:53 Sunny 95 35 10 -12.2 4 4 WSW 14 22 29.74 1007 10 16.09344 0 0
7:53 pm 19:53 Sunny 92 33.3 14 -10 5 5 W 13 20 29.74 1007 10 16.09344 0 0
8:53 pm 20:53 Clear 90 32.2 16 -8.9 6 6 SW 7 11 29.77 1008 10 16.09344 0 0
9:53 pm 21:53 Clear 88 31.1 18 -7.8 7 7 SSW 9 15 29.77 1008 10 16.09344 0 0
10:53 pm 22:53 Clear 86 30 17 -8.3 8 8 SW 12 19 29.77 1008 10 16.09344 0 0
11:53 pm 23:53 Clear 80 26.7 21 -6.1 11 11 NW 3 6 29.8 1009 10 16.09344 0 0

Powered by AerisWeather